sensor_id;sensor_type;location;lat;lon;timestamp;pressure;altitude;pressure_sealevel;temperature;humidity
42433;BME280;28071;48.232;20.668;2023-07-16T00:03:55;99580.91;;;18.28;100.00
42433;BME280;28071;48.232;20.668;2023-07-16T00:08:55;99614.84;;;18.29;100.00
42433;BME280;28071;48.232;20.668;2023-07-16T00:13:55;99608.09;;;18.17;100.00
42433;BME280;28071;48.232;20.668;2023-07-16T00:18:56;99600.25;;;18.05;100.00
42433;BME280;28071;48.232;20.668;2023-07-16T00:23:56;99611.31;;;18.14;100.00
42433;BME280;28071;48.232;20.668;2023-07-16T00:28:57;99604.03;;;18.19;100.00
42433;BME280;28071;48.232;20.668;2023-07-16T00:33:57;99557.72;;;18.02;100.00
42433;BME280;28071;48.232;20.668;2023-07-16T00:38:58;99578.19;;;18.03;100.00
42433;BME280;28071;48.232;20.668;2023-07-16T00:43:58;99516.16;;;17.67;100.00
42433;BME280;28071;48.232;20.668;2023-07-16T00:48:59;99591.91;;;18.12;100.00
42433;BME280;28071;48.232;20.668;2023-07-16T00:53:59;99572.78;;;18.03;100.00
42433;BME280;28071;48.232;20.668;2023-07-16T00:59:00;99578.72;;;18.00;100.00
42433;BME280;28071;48.232;20.668;2023-07-16T01:04:00;99564.72;;;17.93;100.00
42433;BME280;28071;48.232;20.668;2023-07-16T01:09:07;99576.53;;;17.97;100.00
42433;BME280;28071;48.232;20.668;2023-07-16T01:14:08;99546.69;;;17.93;100.00
42433;BME280;28071;48.232;20.668;2023-07-16T01:19:10;99565.53;;;18.03;100.00
42433;BME280;28071;48.232;20.668;2023-07-16T01:29:54;99549.63;;;17.92;100.00
42433;BME280;28071;48.232;20.668;2023-07-16T01:34:57;99535.13;;;18.03;100.00
42433;BME280;28071;48.232;20.668;2023-07-16T01:39:58;99529.16;;;17.86;100.00
42433;BME280;28071;48.232;20.668;2023-07-16T01:44:58;99547.47;;;17.94;100.00
42433;BME280;28071;48.232;20.668;2023-07-16T01:49:59;99555.53;;;17.79;100.00
42433;BME280;28071;48.232;20.668;2023-07-16T01:54:59;99557.66;;;17.82;100.00
42433;BME280;28071;48.232;20.668;2023-07-16T02:00:00;99550.41;;;17.77;100.00
42433;BME280;28071;48.232;20.668;2023-07-16T02:05:00;99554.97;;;17.71;100.00
42433;BME280;28071;48.232;20.668;2023-07-16T02:10:01;99558.72;;;17.70;100.00
42433;BME280;28071;48.232;20.668;2023-07-16T02:15:02;99564.59;;;17.67;100.00
42433;BME280;28071;48.232;20.668;2023-07-16T02:20:03;99557.03;;;17.59;100.00
42433;BME280;28071;48.232;20.668;2023-07-16T02:25:07;99558.41;;;17.62;100.00
42433;BME280;28071;48.232;20.668;2023-07-16T02:30:08;99560.78;;;17.58;100.00
42433;BME280;28071;48.232;20.668;2023-07-16T02:35:09;99551.94;;;17.68;100.00
42433;BME280;28071;48.232;20.668;2023-07-16T02:40:09;99536.56;;;17.53;100.00
42433;BME280;28071;48.232;20.668;2023-07-16T02:45:10;99540.66;;;17.61;100.00
42433;BME280;28071;48.232;20.668;2023-07-16T02:50:10;99551.38;;;17.56;100.00
42433;BME280;28071;48.232;20.668;2023-07-16T02:55:11;99549.50;;;17.56;100.00
42433;BME280;28071;48.232;20.668;2023-07-16T03:00:11;99552.63;;;17.38;100.00
42433;BME280;28071;48.232;20.668;2023-07-16T03:05:12;99555.09;;;17.44;100.00
42433;BME280;28071;48.232;20.668;2023-07-16T03:10:12;99557.53;;;17.46;100.00
42433;BME280;28071;48.232;20.668;2023-07-16T03:15:13;99487.44;;;17.05;100.00
42433;BME280;28071;48.232;20.668;2023-07-16T03:20:13;99546.25;;;17.49;100.00
42433;BME280;28071;48.232;20.668;2023-07-16T03:25:14;99516.56;;;17.29;100.00
42433;BME280;28071;48.232;20.668;2023-07-16T03:30:14;99564.59;;;17.67;100.00
42433;BME280;28071;48.232;20.668;2023-07-16T03:35:15;99573.47;;;17.63;100.00
42433;BME280;28071;48.232;20.668;2023-07-16T03:40:17;99560.28;;;17.66;100.00
42433;BME280;28071;48.232;20.668;2023-07-16T03:45:18;99563.53;;;17.68;100.00
42433;BME280;28071;48.232;20.668;2023-07-16T03:50:19;99547.13;;;17.70;100.00
42433;BME280;28071;48.232;20.668;2023-07-16T03:55:20;99575.72;;;17.96;100.00
42433;BME280;28071;48.232;20.668;2023-07-16T04:00:20;99574.69;;;18.08;100.00
42433;BME280;28071;48.232;20.668;2023-07-16T04:05:21;99579.03;;;18.14;100.00
42433;BME280;28071;48.232;20.668;2023-07-16T04:10:21;99589.53;;;18.30;100.00
42433;BME280;28071;48.232;20.668;2023-07-16T04:15:22;99584.97;;;18.41;100.00
42433;BME280;28071;48.232;20.668;2023-07-16T04:20:22;99556.66;;;18.28;100.00
42433;BME280;28071;48.232;20.668;2023-07-16T04:25:23;99590.09;;;18.58;100.00
42433;BME280;28071;48.232;20.668;2023-07-16T04:30:24;99591.75;;;18.69;100.00
42433;BME280;28071;48.232;20.668;2023-07-16T04:35:24;99594.16;;;18.81;100.00
42433;BME280;28071;48.232;20.668;2023-07-16T04:40:25;99587.94;;;18.96;100.00
42433;BME280;28071;48.232;20.668;2023-07-16T04:45:25;99592.50;;;19.16;100.00
42433;BME280;28071;48.232;20.668;2023-07-16T04:50:26;99594.63;;;19.19;100.00
42433;BME280;28071;48.232;20.668;2023-07-16T04:55:26;99587.34;;;19.24;100.00
42433;BME280;28071;48.232;20.668;2023-07-16T05:00:27;99570.06;;;19.35;100.00
42433;BME280;28071;48.232;20.668;2023-07-16T05:05:27;99585.09;;;19.62;100.00
42433;BME280;28071;48.232;20.668;2023-07-16T05:10:27;99612.47;;;19.94;100.00
42433;BME280;28071;48.232;20.668;2023-07-16T05:15:28;99610.75;;;20.14;100.00
42433;BME280;28071;48.232;20.668;2023-07-16T05:20:28;99613.66;;;20.28;100.00
42433;BME280;28071;48.232;20.668;2023-07-16T05:25:29;99610.84;;;20.48;100.00
42433;BME280;28071;48.232;20.668;2023-07-16T05:30:29;99618.78;;;20.68;100.00
42433;BME280;28071;48.232;20.668;2023-07-16T05:35:30;99601.13;;;20.81;100.00
42433;BME280;28071;48.232;20.668;2023-07-16T05:40:30;99553.56;;;20.80;100.00
42433;BME280;28071;48.232;20.668;2023-07-16T05:45:31;99613.59;;;21.35;100.00
42433;BME280;28071;48.232;20.668;2023-07-16T05:50:31;99601.84;;;21.45;100.00
42433;BME280;28071;48.232;20.668;2023-07-16T05:55:32;99614.94;;;21.62;100.00
42433;BME280;28071;48.232;20.668;2023-07-16T06:00:32;99605.59;;;21.73;100.00
42433;BME280;28071;48.232;20.668;2023-07-16T06:05:33;99639.72;;;22.17;100.00
42433;BME280;28071;48.232;20.668;2023-07-16T06:10:34;99629.91;;;22.39;100.00
42433;BME280;28071;48.232;20.668;2023-07-16T06:15:36;99639.06;;;22.62;100.00
42433;BME280;28071;48.232;20.668;2023-07-16T06:20:36;99628.47;;;22.80;100.00
42433;BME280;28071;48.232;20.668;2023-07-16T06:25:37;99643.50;;;22.91;100.00
42433;BME280;28071;48.232;20.668;2023-07-16T06:30:37;99648.56;;;23.11;100.00
42433;BME280;28071;48.232;20.668;2023-07-16T06:35:38;99651.16;;;23.35;100.00
42433;BME280;28071;48.232;20.668;2023-07-16T06:40:38;99641.09;;;23.49;100.00
42433;BME280;28071;48.232;20.668;2023-07-16T06:45:39;99618.41;;;23.73;100.00
42433;BME280;28071;48.232;20.668;2023-07-16T06:50:39;99623.88;;;24.09;99.95
42433;BME280;28071;48.232;20.668;2023-07-16T06:55:40;99626.56;;;24.37;99.09
42433;BME280;28071;48.232;20.668;2023-07-16T07:00:40;99633.13;;;24.58;98.36
42433;BME280;28071;48.232;20.668;2023-07-16T07:05:41;99628.34;;;24.86;97.61
42433;BME280;28071;48.232;20.668;2023-07-16T07:10:42;99630.91;;;25.05;95.80
42433;BME280;28071;48.232;20.668;2023-07-16T07:15:42;99614.69;;;25.31;96.07
42433;BME280;28071;48.232;20.668;2023-07-16T07:20:43;99642.50;;;25.50;94.74
42433;BME280;28071;48.232;20.668;2023-07-16T07:25:49;99626.47;;;25.88;91.80
42433;BME280;28071;48.232;20.668;2023-07-16T07:30:50;99629.53;;;25.95;88.23
42433;BME280;28071;48.232;20.668;2023-07-16T07:35:53;99587.84;;;25.86;88.09
42433;BME280;28071;48.232;20.668;2023-07-16T07:40:55;99641.28;;;26.31;89.13
42433;BME280;28071;48.232;20.668;2023-07-16T07:45:55;99625.44;;;26.50;86.42
42433;BME280;28071;48.232;20.668;2023-07-16T07:50:56;99633.41;;;26.81;86.73
42433;BME280;28071;48.232;20.668;2023-07-16T07:55:56;99640.31;;;26.96;85.95
42433;BME280;28071;48.232;20.668;2023-07-16T08:01:04;99577.84;;;26.94;84.11
42433;BME280;28071;48.232;20.668;2023-07-16T08:06:04;99631.41;;;27.63;85.51
42433;BME280;28071;48.232;20.668;2023-07-16T08:11:04;99638.69;;;27.88;78.93
42433;BME280;28071;48.232;20.668;2023-07-16T08:16:05;99582.00;;;27.47;80.68
42433;BME280;28071;48.232;20.668;2023-07-16T08:21:05;99633.31;;;28.01;79.05
42433;BME280;28071;48.232;20.668;2023-07-16T08:26:06;99638.53;;;28.44;79.25
42433;BME280;28071;48.232;20.668;2023-07-16T08:31:06;99634.91;;;28.85;76.88
42433;BME280;28071;48.232;20.668;2023-07-16T08:36:09;99631.03;;;29.32;77.50
42433;BME280;28071;48.232;20.668;2023-07-16T08:41:09;99608.00;;;29.33;73.92
42433;BME280;28071;48.232;20.668;2023-07-16T08:46:10;99633.84;;;29.68;72.18
42433;BME280;28071;48.232;20.668;2023-07-16T08:51:14;99624.69;;;30.01;70.71
42433;BME280;28071;48.232;20.668;2023-07-16T08:56:14;99603.19;;;30.03;68.65
42433;BME280;28071;48.232;20.668;2023-07-16T09:01:16;99619.41;;;30.20;68.94
42433;BME280;28071;48.232;20.668;2023-07-16T09:06:18;99629.84;;;30.43;69.81
42433;BME280;28071;48.232;20.668;2023-07-16T09:11:19;99628.38;;;31.17;67.25
42433;BME280;28071;48.232;20.668;2023-07-16T09:16:21;99632.84;;;31.53;63.80
42433;BME280;28071;48.232;20.668;2023-07-16T09:21:22;99618.28;;;31.84;64.76
42433;BME280;28071;48.232;20.668;2023-07-16T09:26:23;99626.50;;;32.35;62.63
42433;BME280;28071;48.232;20.668;2023-07-16T09:31:23;99642.69;;;32.79;63.50
42433;BME280;28071;48.232;20.668;2023-07-16T09:36:26;99640.59;;;32.92;61.04
42433;BME280;28071;48.232;20.668;2023-07-16T09:41:27;99638.00;;;33.22;59.94
42433;BME280;28071;48.232;20.668;2023-07-16T09:46:28;99630.28;;;33.54;56.62
42433;BME280;28071;48.232;20.668;2023-07-16T09:51:30;99614.41;;;33.97;55.41
42433;BME280;28071;48.232;20.668;2023-07-16T09:56:45;99622.97;;;34.48;52.62
42433;BME280;28071;48.232;20.668;2023-07-16T10:01:47;99627.97;;;34.69;52.10
42433;BME280;28071;48.232;20.668;2023-07-16T10:07:00;99594.84;;;35.13;49.27
42433;BME280;28071;48.232;20.668;2023-07-16T10:17:21;99600.94;;;35.84;46.45
42433;BME280;28071;48.232;20.668;2023-07-16T10:27:34;99604.56;;;35.96;43.55
42433;BME280;28071;48.232;20.668;2023-07-16T10:32:34;99595.69;;;36.42;39.60
42433;BME280;28071;48.232;20.668;2023-07-16T10:37:35;99597.78;;;36.73;41.42
42433;BME280;28071;48.232;20.668;2023-07-16T10:42:36;99613.72;;;37.37;39.53
42433;BME280;28071;48.232;20.668;2023-07-16T10:47:39;99574.88;;;37.33;36.66
42433;BME280;28071;48.232;20.668;2023-07-16T10:52:40;99613.28;;;37.70;37.64
42433;BME280;28071;48.232;20.668;2023-07-16T10:57:40;99606.94;;;37.73;36.26
42433;BME280;28071;48.232;20.668;2023-07-16T11:02:41;99609.25;;;38.11;36.21
42433;BME280;28071;48.232;20.668;2023-07-16T11:07:48;99604.78;;;38.38;34.27
42433;BME280;28071;48.232;20.668;2023-07-16T11:12:52;99610.44;;;38.13;35.17
42433;BME280;28071;48.232;20.668;2023-07-16T11:17:53;99594.84;;;38.44;35.14
42433;BME280;28071;48.232;20.668;2023-07-16T11:22:53;99607.34;;;39.36;33.32
42433;BME280;28071;48.232;20.668;2023-07-16T11:27:54;99608.50;;;38.03;34.93
42433;BME280;28071;48.232;20.668;2023-07-16T11:32:57;99582.50;;;36.10;36.11
42433;BME280;28071;48.232;20.668;2023-07-16T11:37:58;99566.50;;;35.82;37.77
42433;BME280;28071;48.232;20.668;2023-07-16T11:43:12;99587.56;;;37.48;36.66
42433;BME280;28071;48.232;20.668;2023-07-16T11:48:14;99596.03;;;38.43;35.60
42433;BME280;28071;48.232;20.668;2023-07-16T11:53:17;99588.00;;;38.63;35.07
42433;BME280;28071;48.232;20.668;2023-07-16T11:58:17;99586.13;;;39.05;34.31
42433;BME280;28071;48.232;20.668;2023-07-16T12:03:18;99592.41;;;39.64;32.62
42433;BME280;28071;48.232;20.668;2023-07-16T12:08:18;99590.72;;;38.67;32.73
42433;BME280;28071;48.232;20.668;2023-07-16T12:13:18;99576.47;;;38.61;34.06
42433;BME280;28071;48.232;20.668;2023-07-16T12:18:19;99572.50;;;37.49;35.47
42433;BME280;28071;48.232;20.668;2023-07-16T12:23:19;99588.91;;;38.39;34.41
42433;BME280;28071;48.232;20.668;2023-07-16T12:28:20;99584.31;;;38.80;33.33
42433;BME280;28071;48.232;20.668;2023-07-16T12:33:20;99589.13;;;39.32;32.65
42433;BME280;28071;48.232;20.668;2023-07-16T12:38:21;99592.00;;;40.00;32.04
42433;BME280;28071;48.232;20.668;2023-07-16T12:43:22;99584.22;;;39.43;31.95
42433;BME280;28071;48.232;20.668;2023-07-16T12:48:23;99559.66;;;39.34;31.24
42433;BME280;28071;48.232;20.668;2023-07-16T12:53:24;99577.16;;;39.35;28.72
42433;BME280;28071;48.232;20.668;2023-07-16T12:58:25;99580.31;;;39.37;28.41
42433;BME280;28071;48.232;20.668;2023-07-16T13:03:26;99563.13;;;39.87;27.61
42433;BME280;28071;48.232;20.668;2023-07-16T13:08:26;99576.91;;;40.32;29.75
42433;BME280;28071;48.232;20.668;2023-07-16T13:13:27;99544.69;;;40.58;30.00
42433;BME280;28071;48.232;20.668;2023-07-16T13:18:27;99569.88;;;40.51;31.41
42433;BME280;28071;48.232;20.668;2023-07-16T13:23:27;99553.09;;;39.14;30.86
42433;BME280;28071;48.232;20.668;2023-07-16T13:28:28;99559.75;;;39.69;31.88
42433;BME280;28071;48.232;20.668;2023-07-16T13:33:28;99562.47;;;39.76;31.37
42433;BME280;28071;48.232;20.668;2023-07-16T13:38:29;99558.28;;;40.25;28.43
42433;BME280;28071;48.232;20.668;2023-07-16T13:43:30;99556.41;;;39.81;28.77
42433;BME280;28071;48.232;20.668;2023-07-16T13:48:31;99563.34;;;40.03;28.30
42433;BME280;28071;48.232;20.668;2023-07-16T13:53:31;99541.13;;;40.27;28.76
42433;BME280;28071;48.232;20.668;2023-07-16T13:58:33;99555.66;;;40.14;27.80
42433;BME280;28071;48.232;20.668;2023-07-16T14:03:33;99553.81;;;39.97;28.98
42433;BME280;28071;48.232;20.668;2023-07-16T14:08:34;99559.84;;;40.26;30.33
42433;BME280;28071;48.232;20.668;2023-07-16T14:13:36;99512.53;;;39.54;29.82
42433;BME280;28071;48.232;20.668;2023-07-16T14:18:36;99553.44;;;39.99;29.87
42433;BME280;28071;48.232;20.668;2023-07-16T14:23:37;99562.88;;;40.39;30.07
42433;BME280;28071;48.232;20.668;2023-07-16T14:28:37;99556.94;;;40.37;28.65
42433;BME280;28071;48.232;20.668;2023-07-16T14:33:38;99555.72;;;39.73;29.50
42433;BME280;28071;48.232;20.668;2023-07-16T14:38:39;99514.00;;;38.17;31.22
42433;BME280;28071;48.232;20.668;2023-07-16T14:43:39;99548.50;;;39.38;29.82
42433;BME280;28071;48.232;20.668;2023-07-16T14:48:42;99549.53;;;39.51;29.24
42433;BME280;28071;48.232;20.668;2023-07-16T14:53:43;99550.63;;;39.64;30.56
42433;BME280;28071;48.232;20.668;2023-07-16T14:58:43;99527.25;;;39.92;28.90
42433;BME280;28071;48.232;20.668;2023-07-16T15:03:44;99535.16;;;39.94;29.29
42433;BME280;28071;48.232;20.668;2023-07-16T15:08:45;99528.66;;;40.35;29.38
42433;BME280;28071;48.232;20.668;2023-07-16T15:13:45;99515.41;;;40.46;29.56
42433;BME280;28071;48.232;20.668;2023-07-16T15:18:46;99530.50;;;40.48;32.36
42433;BME280;28071;48.232;20.668;2023-07-16T15:23:46;99515.09;;;40.10;31.28
42433;BME280;28071;48.232;20.668;2023-07-16T15:28:47;99493.56;;;39.80;33.89
42433;BME280;28071;48.232;20.668;2023-07-16T15:33:47;99506.94;;;39.61;31.94
42433;BME280;28071;48.232;20.668;2023-07-16T15:38:48;99498.56;;;39.61;34.83
42433;BME280;28071;48.232;20.668;2023-07-16T15:43:48;99491.63;;;39.39;37.73
42433;BME280;28071;48.232;20.668;2023-07-16T15:48:49;99492.66;;;39.15;37.82
42433;BME280;28071;48.232;20.668;2023-07-16T15:53:52;99480.59;;;38.87;39.11
42433;BME280;28071;48.232;20.668;2023-07-16T15:58:53;99488.16;;;38.24;42.70
42433;BME280;28071;48.232;20.668;2023-07-16T16:03:53;99494.00;;;37.45;43.64
42433;BME280;28071;48.232;20.668;2023-07-16T16:08:55;99474.25;;;36.93;45.26
42433;BME280;28071;48.232;20.668;2023-07-16T16:13:56;99484.81;;;36.27;47.91
42433;BME280;28071;48.232;20.668;2023-07-16T16:18:56;99477.81;;;35.57;49.69
42433;BME280;28071;48.232;20.668;2023-07-16T16:23:57;99486.78;;;34.85;51.00
42433;BME280;28071;48.232;20.668;2023-07-16T16:28:58;99482.66;;;34.27;52.74
42433;BME280;28071;48.232;20.668;2023-07-16T16:33:58;99442.34;;;33.55;54.33
42433;BME280;28071;48.232;20.668;2023-07-16T16:38:59;99480.28;;;33.35;55.45
42433;BME280;28071;48.232;20.668;2023-07-16T16:44:00;99475.41;;;32.99;56.88
42433;BME280;28071;48.232;20.668;2023-07-16T16:49:00;99476.97;;;32.54;59.01
42433;BME280;28071;48.232;20.668;2023-07-16T16:54:02;99467.97;;;32.34;59.15
42433;BME280;28071;48.232;20.668;2023-07-16T16:59:02;99474.00;;;32.01;59.23
42433;BME280;28071;48.232;20.668;2023-07-16T17:04:03;99468.44;;;31.43;60.47
42433;BME280;28071;48.232;20.668;2023-07-16T17:09:04;99475.56;;;31.28;61.04
42433;BME280;28071;48.232;20.668;2023-07-16T17:14:05;99443.97;;;30.87;61.61
42433;BME280;28071;48.232;20.668;2023-07-16T17:19:05;99483.47;;;30.66;63.01
42433;BME280;28071;48.232;20.668;2023-07-16T17:24:06;99483.13;;;30.24;64.68
42433;BME280;28071;48.232;20.668;2023-07-16T17:29:07;99447.59;;;29.88;65.04
42433;BME280;28071;48.232;20.668;2023-07-16T17:34:11;99477.19;;;29.82;66.84
42433;BME280;28071;48.232;20.668;2023-07-16T17:39:11;99492.72;;;29.50;69.50
42433;BME280;28071;48.232;20.668;2023-07-16T17:44:13;99493.50;;;29.26;72.48
42433;BME280;28071;48.232;20.668;2023-07-16T17:49:14;99469.19;;;28.88;74.66
42433;BME280;28071;48.232;20.668;2023-07-16T17:54:16;99497.97;;;29.06;77.34
42433;BME280;28071;48.232;20.668;2023-07-16T17:59:18;99491.09;;;28.88;80.35
42433;BME280;28071;48.232;20.668;2023-07-16T18:04:19;99477.00;;;28.53;80.70
42433;BME280;28071;48.232;20.668;2023-07-16T18:09:20;99488.84;;;28.44;78.77
42433;BME280;28071;48.232;20.668;2023-07-16T18:14:20;99486.19;;;28.15;78.87
42433;BME280;28071;48.232;20.668;2023-07-16T18:19:21;99493.69;;;28.06;80.78
42433;BME280;28071;48.232;20.668;2023-07-16T18:24:21;99478.25;;;27.89;81.44
42433;BME280;28071;48.232;20.668;2023-07-16T18:29:22;99504.44;;;27.90;82.52
42433;BME280;28071;48.232;20.668;2023-07-16T18:34:22;99490.66;;;27.57;86.18
42433;BME280;28071;48.232;20.668;2023-07-16T18:39:23;99489.81;;;27.15;89.30
42433;BME280;28071;48.232;20.668;2023-07-16T18:44:23;99522.28;;;26.99;87.40
42433;BME280;28071;48.232;20.668;2023-07-16T18:49:24;99527.69;;;26.52;89.92
42433;BME280;28071;48.232;20.668;2023-07-16T18:54:24;99533.16;;;26.35;93.16
42433;BME280;28071;48.232;20.668;2023-07-16T18:59:25;99531.59;;;26.08;94.67
42433;BME280;28071;48.232;20.668;2023-07-16T19:04:25;99482.31;;;25.61;95.87
42433;BME280;28071;48.232;20.668;2023-07-16T19:09:27;99554.00;;;25.87;98.00
42433;BME280;28071;48.232;20.668;2023-07-16T19:14:28;99553.06;;;26.18;100.00
42433;BME280;28071;48.232;20.668;2023-07-16T19:19:28;99556.91;;;25.99;100.00
42433;BME280;28071;48.232;20.668;2023-07-16T19:24:28;99520.84;;;25.28;100.00
42433;BME280;28071;48.232;20.668;2023-07-16T19:29:29;99555.69;;;25.49;100.00
42433;BME280;28071;48.232;20.668;2023-07-16T19:34:29;99571.00;;;25.36;100.00
42433;BME280;28071;48.232;20.668;2023-07-16T19:39:30;99569.09;;;25.36;100.00
42433;BME280;28071;48.232;20.668;2023-07-16T19:44:32;99538.91;;;25.15;100.00
42433;BME280;28071;48.232;20.668;2023-07-16T19:49:33;99571.13;;;25.31;100.00
42433;BME280;28071;48.232;20.668;2023-07-16T19:54:44;99570.56;;;24.80;100.00
42433;BME280;28071;48.232;20.668;2023-07-16T19:59:44;99533.50;;;24.40;100.00
42433;BME280;28071;48.232;20.668;2023-07-16T20:04:45;99453.69;;;23.91;100.00
42433;BME280;28071;48.232;20.668;2023-07-16T20:09:45;99568.66;;;24.58;100.00
42433;BME280;28071;48.232;20.668;2023-07-16T20:14:51;99574.44;;;24.57;100.00
42433;BME280;28071;48.232;20.668;2023-07-16T20:19:51;99535.94;;;24.41;100.00
42433;BME280;28071;48.232;20.668;2023-07-16T20:24:52;99551.41;;;24.63;100.00
42433;BME280;28071;48.232;20.668;2023-07-16T20:29:53;99574.69;;;24.78;100.00
42433;BME280;28071;48.232;20.668;2023-07-16T20:34:56;99534.63;;;24.39;100.00
42433;BME280;28071;48.232;20.668;2023-07-16T20:39:59;99550.81;;;24.44;100.00
42433;BME280;28071;48.232;20.668;2023-07-16T20:50:18;99543.09;;;24.23;100.00
42433;BME280;28071;48.232;20.668;2023-07-16T20:55:20;99579.91;;;24.43;100.00
42433;BME280;28071;48.232;20.668;2023-07-16T21:00:21;99584.94;;;24.50;100.00
42433;BME280;28071;48.232;20.668;2023-07-16T21:05:23;99543.03;;;24.15;100.00
42433;BME280;28071;48.232;20.668;2023-07-16T21:10:25;99537.53;;;24.06;100.00
42433;BME280;28071;48.232;20.668;2023-07-16T21:15:27;99525.66;;;24.02;100.00
42433;BME280;28071;48.232;20.668;2023-07-16T21:20:36;99582.88;;;24.33;100.00
42433;BME280;28071;48.232;20.668;2023-07-16T21:25:38;99561.44;;;24.18;100.00
42433;BME280;28071;48.232;20.668;2023-07-16T21:30:41;99588.50;;;24.37;100.00
42433;BME280;28071;48.232;20.668;2023-07-16T21:35:42;99511.94;;;23.85;100.00
42433;BME280;28071;48.232;20.668;2023-07-16T21:40:42;99580.78;;;24.16;100.00
42433;BME280;28071;48.232;20.668;2023-07-16T21:45:43;99578.47;;;24.09;100.00
42433;BME280;28071;48.232;20.668;2023-07-16T21:50:43;99582.31;;;24.08;100.00
42433;BME280;28071;48.232;20.668;2023-07-16T21:55:44;99580.28;;;24.14;100.00
42433;BME280;28071;48.232;20.668;2023-07-16T22:00:44;99570.28;;;23.87;100.00
42433;BME280;28071;48.232;20.668;2023-07-16T22:05:45;99545.34;;;23.85;100.00
42433;BME280;28071;48.232;20.668;2023-07-16T22:10:45;99582.25;;;24.00;100.00
42433;BME280;28071;48.232;20.668;2023-07-16T22:15:46;99580.09;;;23.61;100.00
42433;BME280;28071;48.232;20.668;2023-07-16T22:20:47;99580.16;;;23.56;100.00
42433;BME280;28071;48.232;20.668;2023-07-16T22:25:47;99570.00;;;23.34;100.00
42433;BME280;28071;48.232;20.668;2023-07-16T22:30:48;99586.38;;;23.42;100.00
42433;BME280;28071;48.232;20.668;2023-07-16T22:35:48;99594.53;;;23.42;100.00
42433;BME280;28071;48.232;20.668;2023-07-16T22:40:48;99591.44;;;23.35;100.00
42433;BME280;28071;48.232;20.668;2023-07-16T22:45:49;99596.56;;;23.37;100.00
42433;BME280;28071;48.232;20.668;2023-07-16T22:50:49;99592.53;;;23.34;100.00
42433;BME280;28071;48.232;20.668;2023-07-16T22:55:50;99570.41;;;23.00;100.00
42433;BME280;28071;48.232;20.668;2023-07-16T23:00:51;99604.66;;;23.09;100.00
42433;BME280;28071;48.232;20.668;2023-07-16T23:05:51;99563.53;;;22.88;100.00
42433;BME280;28071;48.232;20.668;2023-07-16T23:10:51;99568.38;;;22.73;100.00
42433;BME280;28071;48.232;20.668;2023-07-16T23:15:52;99596.88;;;22.89;100.00
42433;BME280;28071;48.232;20.668;2023-07-16T23:20:53;99583.56;;;22.74;100.00
42433;BME280;28071;48.232;20.668;2023-07-16T23:25:53;99603.88;;;22.76;100.00
42433;BME280;28071;48.232;20.668;2023-07-16T23:30:54;99613.31;;;22.79;100.00
42433;BME280;28071;48.232;20.668;2023-07-16T23:35:55;99562.03;;;22.31;100.00
42433;BME280;28071;48.232;20.668;2023-07-16T23:40:55;99599.13;;;22.49;100.00
42433;BME280;28071;48.232;20.668;2023-07-16T23:46:01;99601.72;;;22.40;100.00
42433;BME280;28071;48.232;20.668;2023-07-16T23:51:02;99620.97;;;22.39;100.00
42433;BME280;28071;48.232;20.668;2023-07-16T23:56:02;99571.69;;;21.99;100.00
